Time;durP1;ratioP1;P1;durP2;ratioP2;P2;SDS_P1;SDS_P2;PMS_P1;PMS_P2;Temp;Humidity;BMP_temperature;BMP_pressure;BME280_temperature;BME280_humidity;BME280_pressure;Samples;Min_cycle;Max_cycle;Signal;HPM_P1;HPM_P2
2022/05/21 00:01:05;;;;;;;9.50;4.47;;;;;;;13.55;83.54;101372.78;5031198;28;20248;-74
2022/05/21 00:03:31;;;;;;;7.90;4.03;;;;;;;13.48;83.22;101376.06;5027414;28;20191;-74
2022/05/21 00:05:57;;;;;;;8.33;4.03;;;;;;;13.35;83.85;101369.00;5011911;28;20674;-74
2022/05/21 00:08:22;;;;;;;8.70;3.70;;;;;;;13.40;83.58;101382.78;5013707;28;20191;-74
2022/05/21 00:10:47;;;;;;;7.37;3.40;;;;;;;13.33;83.26;101391.28;5031245;28;20802;-74
2022/05/21 00:13:13;;;;;;;10.00;3.67;;;;;;;13.33;83.52;101396.41;5030798;28;20702;-74
2022/05/21 00:15:39;;;;;;;8.23;3.20;;;;;;;13.24;83.23;101400.50;5030155;28;20234;-74
2022/05/21 00:18:05;;;;;;;7.37;3.07;;;;;;;13.19;83.17;101404.72;5031209;28;20187;-74
2022/05/21 00:20:49;;;;;;;6.90;2.67;;;;;;;13.18;82.90;101406.44;5029968;28;20225;-74
2022/05/21 00:23:18;;;;;;;7.33;3.20;;;;;;;13.07;81.50;101414.81;5029961;28;20190;-74
2022/05/21 00:25:46;;;;;;;9.50;3.10;;;;;;;13.03;81.86;101420.72;5030907;28;20206;-74
2022/05/21 00:28:11;;;;;;;5.37;2.33;;;;;;;12.94;81.54;101442.81;5031424;28;20264;-74
2022/05/21 00:30:37;;;;;;;4.03;2.70;;;;;;;12.89;81.73;101459.84;5030972;28;20273;-74
2022/05/21 00:33:03;;;;;;;6.00;2.60;;;;;;;12.93;82.06;101440.19;5031506;28;20202;-74
2022/05/21 00:35:29;;;;;;;9.40;2.83;;;;;;;12.89;81.66;101441.84;5030650;28;20566;-74
2022/05/21 00:37:54;;;;;;;5.43;2.73;;;;;;;12.79;81.01;101459.63;5025106;28;20282;-74
2022/05/21 00:40:21;;;;;;;6.40;3.07;;;;;;;12.74;81.10;101449.25;5011345;28;20636;-73
2022/05/21 00:42:46;;;;;;;3.97;2.83;;;;;;;12.73;81.76;101462.06;5009988;28;20238;-74
2022/05/21 00:45:13;;;;;;;6.10;3.07;;;;;;;12.64;82.24;101465.34;5011132;28;20545;-74
2022/05/21 00:47:38;;;;;;;6.60;3.43;;;;;;;12.59;83.18;101466.06;5022285;28;20230;-74
2022/05/21 00:50:06;;;;;;;7.67;3.43;;;;;;;12.47;83.30;101466.66;5030665;28;20182;-74
2022/05/21 00:52:33;;;;;;;7.07;3.37;;;;;;;12.50;83.44;101460.72;5029055;28;20190;-74
2022/05/21 00:55:07;;;;;;;6.13;3.20;;;;;;;12.46;83.29;101474.34;5022086;28;20701;-73
2022/05/21 00:57:40;;;;;;;6.33;3.17;;;;;;;12.39;83.17;101487.91;5010555;28;20225;-73
2022/05/21 01:00:16;;;;;;;5.20;3.10;;;;;;;12.36;83.57;101486.09;5009872;28;20195;-74
2022/05/21 01:02:50;;;;;;;5.30;3.63;;;;;;;12.33;83.83;101480.91;5009327;28;20206;-74
2022/05/21 01:05:19;;;;;;;5.03;3.60;;;;;;;12.36;84.15;101482.69;5010752;28;20203;-74
2022/05/21 01:07:46;;;;;;;6.80;3.87;;;;;;;12.34;84.22;101486.91;5010808;28;20221;-74
2022/05/21 01:10:16;;;;;;;6.13;4.23;;;;;;;12.34;84.49;101498.03;5010107;28;20179;-74
2022/05/21 01:12:49;;;;;;;6.17;3.50;;;;;;;12.36;84.50;101505.78;5011141;28;20593;-74
2022/05/21 01:15:17;;;;;;;7.13;3.60;;;;;;;12.41;84.46;101506.75;4992378;28;20305;-74
2022/05/21 01:17:42;;;;;;;5.37;3.73;;;;;;;12.44;84.79;101514.53;5009471;28;20188;-74
2022/05/21 01:20:13;;;;;;;7.73;3.53;;;;;;;12.45;84.88;101517.13;5009096;28;20202;-74
2022/05/21 01:22:45;;;;;;;6.87;3.80;;;;;;;12.40;84.50;101513.59;5009315;28;20194;-74
2022/05/21 01:25:12;;;;;;;5.80;3.83;;;;;;;12.38;85.14;101517.84;5008435;28;20341;-73
2022/05/21 01:27:39;;;;;;;7.80;3.67;;;;;;;12.28;85.21;101515.00;5010440;28;20179;-74
2022/05/21 01:30:07;;;;;;;8.60;4.00;;;;;;;12.24;85.75;101520.91;5026197;28;20194;-74
2022/05/21 01:32:32;;;;;;;8.77;4.20;;;;;;;12.23;85.77;101527.75;5028227;28;20190;-74
2022/05/21 01:34:58;;;;;;;6.90;3.90;;;;;;;12.26;86.17;101535.50;5029732;28;20221;-74
2022/05/21 01:37:23;;;;;;;5.40;4.23;;;;;;;12.23;85.99;101540.59;5029620;28;20182;-74
2022/05/21 01:39:48;;;;;;;6.33;4.37;;;;;;;12.23;85.94;101538.03;5029877;28;20186;-74
2022/05/21 01:42:14;;;;;;;8.93;3.80;;;;;;;12.23;85.91;101552.56;5029606;28;20186;-74
2022/05/21 01:44:39;;;;;;;6.63;3.70;;;;;;;12.21;86.03;101547.38;5029746;28;20206;-75
2022/05/21 01:47:08;;;;;;;8.23;4.53;;;;;;;12.21;85.95;101551.66;5027165;28;20629;-73
2022/05/21 01:49:33;;;;;;;6.10;3.93;;;;;;;12.17;85.69;101557.56;5024208;28;20222;-74
2022/05/21 01:52:00;;;;;;;6.93;3.67;;;;;;;12.20;85.75;101560.19;5029617;28;20190;-74
2022/05/21 01:54:25;;;;;;;5.43;3.70;;;;;;;12.20;85.09;101566.19;5028807;28;20214;-74
2022/05/21 01:56:51;;;;;;;5.53;4.00;;;;;;;12.20;85.50;101579.03;5028294;28;20310;-74
2022/05/21 01:59:16;;;;;;;10.23;4.10;;;;;;;12.21;86.03;101579.91;5029181;28;20282;-73
2022/05/21 02:01:41;;;;;;;7.10;3.60;;;;;;;12.25;86.09;101580.00;5028514;28;20213;-74
2022/05/21 02:04:07;;;;;;;6.93;4.40;;;;;;;12.26;85.93;101578.31;5012322;28;20183;-74
2022/05/21 02:06:33;;;;;;;8.90;3.80;;;;;;;12.30;85.99;101572.44;5013368;28;20284;-73
2022/05/21 02:08:58;;;;;;;7.80;4.07;;;;;;;12.30;85.89;101577.56;5028602;28;20199;-73
2022/05/21 02:11:24;;;;;;;6.87;4.07;;;;;;;12.36;85.50;101583.69;5028110;28;20217;-74
2022/05/21 02:13:49;;;;;;;8.07;4.10;;;;;;;12.39;85.15;101580.34;5026988;28;20727;-73
2022/05/21 02:16:14;;;;;;;6.60;4.60;;;;;;;12.41;85.48;101582.13;5029472;28;20210;-74
2022/05/21 02:18:40;;;;;;;5.77;4.03;;;;;;;12.40;85.12;101582.94;5028820;28;20190;-74
2022/05/21 02:21:07;;;;;;;6.37;3.80;;;;;;;12.42;85.35;101588.13;5029455;28;20234;-73
2022/05/21 02:23:33;;;;;;;8.87;3.93;;;;;;;12.42;84.79;101583.88;5029524;28;20221;-74
2022/05/21 02:26:00;;;;;;;6.73;3.73;;;;;;;12.46;84.72;101587.34;5029779;28;20202;-74
2022/05/21 02:28:25;;;;;;;7.33;3.53;;;;;;;12.48;85.02;101594.28;5028205;28;20219;-74
2022/05/21 02:30:51;;;;;;;8.83;4.37;;;;;;;12.48;84.73;101594.28;5029884;28;20193;-73
2022/05/21 02:33:16;;;;;;;5.93;3.73;;;;;;;12.51;85.19;101589.22;5029437;28;20746;-73
2022/05/21 02:35:41;;;;;;;6.67;4.30;;;;;;;12.53;84.83;101599.53;5029677;28;20580;-74
2022/05/21 02:40:51;;;;;;;4.80;3.87;;;;;;;12.55;85.26;101597.84;5010213;28;20704;-74
2022/05/21 02:43:16;;;;;;;11.20;4.53;;;;;;;12.56;84.92;101591.88;5009612;28;20202;-73
2022/05/21 02:45:41;;;;;;;5.87;3.80;;;;;;;12.55;83.95;101598.72;5009616;28;20199;-74
2022/05/21 02:48:07;;;;;;;5.10;3.80;;;;;;;12.53;84.73;101596.97;5009713;28;20820;-74
2022/05/21 02:50:34;;;;;;;5.93;4.20;;;;;;;12.53;84.21;101595.25;5009194;28;20187;-74
2022/05/21 02:53:05;;;;;;;7.33;4.37;;;;;;;12.56;83.92;101597.00;5009766;28;20214;-74
2022/05/21 02:55:31;;;;;;;6.57;3.93;;;;;;;12.52;84.29;101597.78;5008846;28;20357;-74
2022/05/21 02:57:57;;;;;;;8.97;4.60;;;;;;;12.46;84.48;101597.63;5008497;28;20712;-74
2022/05/21 03:00:26;;;;;;;6.60;4.00;;;;;;;12.50;83.82;101602.88;5008080;28;20237;-74
2022/05/21 03:02:52;;;;;;;6.47;4.20;;;;;;;12.53;84.36;101599.53;5008114;28;20195;-74
2022/05/21 03:05:18;;;;;;;5.97;3.70;;;;;;;12.55;84.33;101610.69;5009294;28;20266;-74
2022/05/21 03:07:45;;;;;;;8.07;3.70;;;;;;;12.50;83.73;101605.44;5023111;28;20185;-74
2022/05/21 03:10:22;;;;;;;6.90;3.43;;;;;;;12.46;83.29;101603.66;5037361;28;20186;-74
2022/05/21 03:12:55;;;;;;;5.17;3.57;;;;;;;12.49;83.59;101603.69;5009076;28;20234;-74
2022/05/21 03:15:23;;;;;;;5.27;3.50;;;;;;;12.43;83.63;101606.13;5009252;28;20227;-74
2022/05/21 03:17:49;;;;;;;6.63;3.63;;;;;;;12.39;84.10;101608.59;5008901;28;20544;-73
2022/05/21 03:20:16;;;;;;;5.80;3.80;;;;;;;12.38;83.81;101604.28;4992976;28;20191;-74
2022/05/21 03:22:42;;;;;;;6.60;3.63;;;;;;;12.43;84.33;101602.69;5012504;28;20195;-74
2022/05/21 03:25:09;;;;;;;6.20;3.90;;;;;;;12.46;84.15;101603.66;5013089;28;20297;-74
2022/05/21 03:27:34;;;;;;;7.50;4.10;;;;;;;12.33;84.34;101599.03;5011884;28;20191;-74
2022/05/21 03:30:01;;;;;;;6.47;4.07;;;;;;;12.33;84.20;101599.03;5012985;28;20194;-74
2022/05/21 03:32:26;;;;;;;6.17;4.00;;;;;;;12.40;84.49;101602.63;5013165;28;20241;-74
2022/05/21 03:34:52;;;;;;;6.50;3.80;;;;;;;12.38;84.73;101599.16;5012359;28;20354;-73
2022/05/21 03:37:17;;;;;;;4.00;3.60;;;;;;;12.40;84.54;101590.66;5011703;28;20660;-74
2022/05/21 03:39:42;;;;;;;4.83;3.60;;;;;;;12.35;84.10;101599.09;5011541;28;20783;-73
2022/05/21 03:42:09;;;;;;;6.03;3.73;;;;;;;12.35;84.38;101604.22;5013154;28;20593;-73
2022/05/21 03:44:34;;;;;;;6.13;3.97;;;;;;;12.27;84.19;101603.16;5014437;28;20213;-74
2022/05/21 03:47:00;;;;;;;6.60;4.20;;;;;;;12.28;84.13;101604.91;5032209;28;20207;-74
2022/05/21 03:49:26;;;;;;;5.27;3.50;;;;;;;12.29;83.95;101610.06;5032586;28;20201;-74
2022/05/21 03:51:52;;;;;;;6.60;3.90;;;;;;;12.20;83.77;101612.41;5030684;28;20191;-75
2022/05/21 03:54:18;;;;;;;7.27;4.10;;;;;;;12.19;83.58;101605.53;5032230;28;20297;-74
2022/05/21 03:56:43;;;;;;;4.83;3.93;;;;;;;12.25;84.02;101610.81;5031838;28;20206;-74
2022/05/21 03:59:09;;;;;;;4.93;4.23;;;;;;;12.24;84.15;101610.78;5033510;28;20274;-74
2022/05/21 04:01:34;;;;;;;5.87;4.60;;;;;;;12.19;83.97;101600.41;5027662;28;20214;-74
2022/05/21 04:03:59;;;;;;;6.37;4.13;;;;;;;12.14;84.10;101602.00;5036991;28;20190;-73
2022/05/21 04:06:25;;;;;;;6.43;4.13;;;;;;;12.13;84.52;101597.66;5050970;28;20212;-74
2022/05/21 04:08:52;;;;;;;5.23;4.57;;;;;;;12.14;84.85;101590.84;5045423;28;20194;-74
2022/05/21 04:11:18;;;;;;;7.63;4.73;;;;;;;12.13;84.80;101589.13;5047256;28;20272;-73
2022/05/21 04:13:43;;;;;;;6.53;4.67;;;;;;;12.12;84.75;101588.22;5050008;28;20308;-74
2022/05/21 04:16:08;;;;;;;6.27;4.43;;;;;;;12.14;84.73;101591.72;5050361;28;20740;-74
2022/05/21 04:18:33;;;;;;;5.60;5.00;;;;;;;12.14;84.62;101602.00;5041758;28;20203;-74
2022/05/21 04:20:59;;;;;;;5.60;5.10;;;;;;;12.19;85.33;101592.72;5012114;28;20191;-74
2022/05/21 04:23:24;;;;;;;9.53;6.33;;;;;;;12.19;84.79;101599.53;5011821;28;20178;-73
2022/05/21 04:25:50;;;;;;;8.40;5.87;;;;;;;12.24;84.60;101603.97;5012215;28;20604;-73
2022/05/21 04:28:15;;;;;;;7.73;7.03;;;;;;;12.23;84.79;101603.91;5011854;28;20562;-73
2022/05/21 04:30:41;;;;;;;11.70;8.40;;;;;;;12.16;85.13;101605.47;5011036;28;20605;-74
2022/05/21 04:33:06;;;;;;;9.30;8.40;;;;;;;12.21;85.15;101600.47;5010688;28;20671;-73
2022/05/21 04:38:16;;;;;;;10.07;8.90;;;;;;;12.28;85.25;101600.63;5012102;28;20191;-74
2022/05/21 04:40:42;;;;;;;10.07;8.97;;;;;;;12.34;85.29;101597.31;5020014;28;20263;-74
2022/05/21 04:43:08;;;;;;;10.57;9.57;;;;;;;12.25;85.65;101585.16;5031743;28;20311;-73
2022/05/21 04:45:33;;;;;;;12.10;9.27;;;;;;;12.29;85.61;101584.41;5030154;28;20802;-73
2022/05/21 04:48:02;;;;;;;11.83;9.40;;;;;;;12.29;85.37;101592.09;5031338;28;20276;-74
2022/05/21 04:50:28;;;;;;;11.40;9.30;;;;;;;12.33;86.05;101583.63;5030186;28;20190;-74
2022/05/21 04:52:53;;;;;;;11.93;9.70;;;;;;;12.37;85.95;101580.31;5024153;28;20645;-74
2022/05/21 04:55:18;;;;;;;11.03;9.83;;;;;;;12.47;85.54;101576.25;5014045;28;20591;-74
2022/05/21 04:57:45;;;;;;;11.77;9.63;;;;;;;12.58;85.04;101575.66;5036572;28;20710;-74
2022/05/21 05:00:13;;;;;;;12.20;10.87;;;;;;;12.56;84.96;101577.34;5049671;28;20207;-73
2022/05/21 05:02:39;;;;;;;14.23;10.60;;;;;;;12.61;85.34;101573.19;5049000;28;20216;-74
2022/05/21 05:05:06;;;;;;;14.63;10.60;;;;;;;12.60;85.02;101570.56;5032842;28;20574;-74
2022/05/21 05:07:31;;;;;;;13.27;10.63;;;;;;;12.69;85.01;101578.47;5051258;28;20288;-73
2022/05/21 05:09:57;;;;;;;12.80;10.73;;;;;;;12.74;84.90;101571.75;5041675;28;20194;-75
2022/05/21 05:12:22;;;;;;;13.87;11.43;;;;;;;12.78;85.21;101564.16;5030913;28;20213;-73
2022/05/21 05:14:47;;;;;;;15.87;12.13;;;;;;;12.88;85.62;101559.22;5030124;28;20265;-75
2022/05/21 05:17:13;;;;;;;13.20;10.93;;;;;;;12.92;84.94;101572.16;5030967;28;20218;-74
2022/05/21 05:19:39;;;;;;;15.13;12.30;;;;;;;12.78;85.21;101571.84;5029135;28;20243;-75
2022/05/21 05:22:09;;;;;;;16.30;13.57;;;;;;;12.81;85.45;101571.91;5030882;28;20589;-74
2022/05/21 05:24:35;;;;;;;15.20;13.60;;;;;;;12.80;85.67;101562.47;5029543;28;20186;-75
2022/05/21 05:27:00;;;;;;;18.53;13.23;;;;;;;12.90;85.22;101561.81;5029690;28;20313;-75
2022/05/21 05:29:26;;;;;;;17.57;13.30;;;;;;;12.88;85.71;101564.34;5030527;28;20266;-75
2022/05/21 05:31:52;;;;;;;21.73;14.40;;;;;;;12.77;85.52;101569.25;5029979;28;20569;-74
2022/05/21 05:34:17;;;;;;;19.23;14.93;;;;;;;12.76;86.21;101570.09;5029042;28;20214;-74
2022/05/21 05:36:42;;;;;;;19.10;14.73;;;;;;;12.75;86.14;101576.91;5029990;28;20655;-74
2022/05/21 05:39:08;;;;;;;18.43;15.23;;;;;;;12.77;86.15;101570.09;5030482;28;20608;-75
2022/05/21 05:41:37;;;;;;;17.20;14.10;;;;;;;12.84;86.40;101564.28;5030289;28;20186;-75
2022/05/21 05:44:02;;;;;;;20.97;15.97;;;;;;;12.78;86.40;101565.84;5029241;28;20173;-74
2022/05/21 05:46:28;;;;;;;22.23;17.33;;;;;;;12.78;87.47;101558.13;5028634;28;20814;-74
2022/05/21 05:48:53;;;;;;;22.43;16.13;;;;;;;12.85;86.20;101558.28;5030045;28;20925;-75
2022/05/21 05:51:19;;;;;;;23.47;17.27;;;;;;;12.78;86.58;101560.69;5043510;28;20193;-75
2022/05/21 05:53:46;;;;;;;20.80;18.30;;;;;;;12.73;87.61;101567.44;5037500;28;20217;-75
2022/05/21 05:56:12;;;;;;;19.37;16.73;;;;;;;12.70;88.14;101560.53;5030338;28;20213;-74
2022/05/21 06:01:39;;;;;;;22.57;17.90;;;;;;;12.76;88.39;101557.25;5021127;28;20232;-74
2022/05/21 06:04:04;;;;;;;25.43;18.63;;;;;;;12.80;88.54;101557.31;5036875;28;20233;-75
2022/05/21 06:06:31;;;;;;;23.03;19.30;;;;;;;12.79;88.01;101558.16;5010090;28;20215;-75
2022/05/21 06:08:57;;;;;;;21.77;19.40;;;;;;;12.77;88.05;101559.81;5010403;28;20233;-75
2022/05/21 06:11:22;;;;;;;23.20;17.50;;;;;;;12.82;88.47;101553.06;5009844;28;20233;-75
2022/05/21 06:13:48;;;;;;;23.97;18.17;;;;;;;12.85;87.93;101565.13;5009989;28;20210;-74
2022/05/21 06:16:15;;;;;;;20.87;18.43;;;;;;;12.81;88.87;101560.78;5008384;28;20207;-75
2022/05/21 06:18:41;;;;;;;22.90;17.40;;;;;;;12.82;88.75;101562.50;5011619;28;20250;-74
2022/05/21 06:21:09;;;;;;;19.83;17.13;;;;;;;12.81;89.07;101566.75;5045169;28;20850;-74
2022/05/21 06:23:35;;;;;;;22.03;17.50;;;;;;;12.72;89.52;101571.69;5040044;28;20277;-75
2022/05/21 06:26:01;;;;;;;25.27;19.07;;;;;;;12.81;90.03;101561.63;5028204;28;20207;-74
2022/05/21 06:28:28;;;;;;;22.87;19.40;;;;;;;12.81;89.98;101573.63;5029293;28;20187;-75
2022/05/21 06:30:53;;;;;;;24.40;20.30;;;;;;;12.86;90.28;101566.88;5029568;28;20182;-75
2022/05/21 06:33:29;;;;;;;26.23;21.53;;;;;;;12.82;90.70;101567.66;5029197;28;20587;-75
2022/05/21 06:36:09;;;;;;;29.90;23.40;;;;;;;12.82;90.64;101565.91;5013880;28;20249;-75
2022/05/21 06:38:34;;;;;;;25.47;21.73;;;;;;;12.89;90.84;101564.34;5040891;28;20193;-75
2022/05/21 06:41:01;;;;;;;24.87;21.40;;;;;;;13.00;90.78;101556.91;5024564;28;20326;-75
2022/05/21 06:43:27;;;;;;;26.10;22.80;;;;;;;13.08;90.27;101557.94;5026937;28;20708;-75
2022/05/21 06:45:52;;;;;;;23.97;21.37;;;;;;;13.29;89.98;101556.66;5029462;28;20241;-75
2022/05/21 06:48:17;;;;;;;28.00;21.43;;;;;;;13.34;88.71;101552.47;5029443;28;20228;-74
2022/05/21 06:50:42;;;;;;;24.30;20.97;;;;;;;13.39;88.43;101539.72;5029128;28;20218;-74
2022/05/21 06:53:08;;;;;;;24.67;19.93;;;;;;;13.59;87.53;101540.94;5029400;28;20260;-74
2022/05/21 06:55:33;;;;;;;24.23;19.40;;;;;;;13.69;87.28;101546.31;5030976;28;20246;-75
2022/05/21 06:57:59;;;;;;;27.87;19.77;;;;;;;13.99;86.31;101533.09;5032276;28;20194;-75
2022/05/21 07:00:24;;;;;;;23.97;20.73;;;;;;;14.00;86.29;101535.66;5018492;28;20218;-75
2022/05/21 07:02:52;;;;;;;24.43;20.90;;;;;;;14.14;85.67;101533.34;5013650;28;20198;-75
2022/05/21 07:08:03;;;;;;;24.70;19.83;;;;;;;14.46;83.73;101543.31;5014005;28;20190;-75
2022/05/21 07:10:29;;;;;;;24.00;19.73;;;;;;;14.56;82.80;101540.06;5014324;28;20194;-75
2022/05/21 07:12:55;;;;;;;21.73;19.43;;;;;;;14.83;82.44;101539.56;5013032;28;20205;-75
2022/05/21 07:15:21;;;;;;;22.40;19.23;;;;;;;15.30;81.47;101533.25;5011928;28;20242;-75
2022/05/21 07:17:47;;;;;;;23.23;18.50;;;;;;;15.45;80.56;101542.06;5013045;28;20612;-74
2022/05/21 07:20:19;;;;;;;21.87;17.87;;;;;;;15.49;80.40;101532.63;5013407;28;20248;-75
2022/05/21 07:22:47;;;;;;;19.80;16.63;;;;;;;15.55;78.63;101543.91;5012997;28;20237;-75
2022/05/21 07:25:17;;;;;;;19.80;17.10;;;;;;;15.12;79.62;101544.25;5010214;28;20606;-74
2022/05/21 07:27:42;;;;;;;21.60;18.67;;;;;;;14.73;81.54;101545.44;5015037;28;20224;-75
2022/05/21 07:30:08;;;;;;;20.97;17.57;;;;;;;14.75;82.19;101542.03;5013000;28;20186;-74
2022/05/21 07:32:34;;;;;;;21.20;17.43;;;;;;;14.94;81.24;101538.84;5013073;28;20206;-75
2022/05/21 07:35:06;;;;;;;22.37;17.03;;;;;;;14.85;81.50;101533.56;4994694;28;20223;-74
2022/05/21 07:37:32;;;;;;;20.50;16.93;;;;;;;14.93;81.09;101539.69;5042422;28;20197;-75
2022/05/21 07:39:58;;;;;;;23.17;16.80;;;;;;;15.08;80.35;101539.00;5050868;28;20276;-75
2022/05/21 07:42:23;;;;;;;20.90;16.20;;;;;;;15.09;80.48;101536.44;5048198;28;20285;-75
2022/05/21 07:44:49;;;;;;;20.10;16.70;;;;;;;15.12;80.65;101536.50;5030614;28;20190;-75
2022/05/21 07:47:15;;;;;;;19.70;16.10;;;;;;;15.02;80.81;101539.81;5032712;28;20183;-75
2022/05/21 07:49:41;;;;;;;17.30;15.33;;;;;;;15.08;79.89;101539.00;5031048;28;20244;-75
2022/05/21 07:52:07;;;;;;;20.10;15.10;;;;;;;15.46;79.26;101537.75;5032088;28;20655;-75
2022/05/21 07:54:32;;;;;;;21.70;15.20;;;;;;;15.35;78.79;101529.03;5032128;28;20222;-75
2022/05/21 07:56:59;;;;;;;17.40;13.57;;;;;;;16.18;76.48;101525.53;5014344;28;20202;-75
2022/05/21 07:59:25;;;;;;;16.63;11.90;;;;;;;16.90;74.15;101532.03;5030990;28;20681;-75
2022/05/21 08:01:51;;;;;;;17.77;12.43;;;;;;;16.71;73.11;101527.63;5031957;28;20190;-76
2022/05/21 08:04:17;;;;;;;14.33;11.80;;;;;;;16.69;73.95;101520.72;5031916;28;20197;-75
2022/05/21 08:06:43;;;;;;;15.93;11.93;;;;;;;16.20;74.79;101523.81;5030762;28;20206;-73
2022/05/21 08:09:08;;;;;;;16.43;12.90;;;;;;;15.69;76.38;101523.38;5036992;28;20197;-73
2022/05/21 08:11:34;;;;;;;16.07;11.93;;;;;;;15.65;77.02;101531.97;5032115;28;20198;-74
2022/05/21 08:14:00;;;;;;;15.20;11.70;;;;;;;15.68;77.17;101531.97;5030152;28;20210;-74
2022/05/21 08:16:26;;;;;;;18.80;12.27;;;;;;;15.76;76.83;101523.47;5029896;28;21024;-74
2022/05/21 08:18:52;;;;;;;15.70;12.23;;;;;;;16.07;74.82;101525.44;5030504;28;20796;-74
2022/05/21 08:21:17;;;;;;;11.47;9.20;;;;;;;16.29;73.36;101522.16;5032058;28;20269;-74
2022/05/21 08:29:11;;;;;;;12.70;8.80;;;;;;;16.65;73.46;101516.38;5031415;28;20902;-74
2022/05/21 08:31:37;;;;;;;16.50;8.77;;;;;;;16.83;72.74;101521.66;5031652;28;20194;-74
2022/05/21 08:34:02;;;;;;;13.47;8.40;;;;;;;16.87;71.77;101518.25;5031662;28;20649;-74
2022/05/21 08:36:29;;;;;;;13.53;7.90;;;;;;;16.65;74.03;101516.38;5031098;28;20611;-74
2022/05/21 08:38:54;;;;;;;15.33;9.07;;;;;;;16.47;76.70;101511.09;5031716;28;20186;-74
2022/05/21 08:41:27;;;;;;;10.70;8.50;;;;;;;15.97;78.08;101512.47;5031080;28;20201;-74
2022/05/21 08:43:55;;;;;;;14.67;9.20;;;;;;;15.63;81.47;101536.22;5031584;28;20183;-74
2022/05/21 08:46:59;;;;;;;13.83;9.83;;;;;;;15.42;83.33;101539.44;5029505;28;20250;-74
2022/05/21 08:49:50;;;;;;;11.70;9.10;;;;;;;15.70;83.49;101546.63;5030751;28;20230;-73
2022/05/21 08:52:27;;;;;;;14.63;9.90;;;;;;;15.75;83.58;101550.13;5029643;28;20236;-74
2022/05/21 08:54:57;;;;;;;13.73;9.67;;;;;;;15.70;83.53;101553.53;5031139;28;20225;-74
2022/05/21 08:57:28;;;;;;;11.40;9.37;;;;;;;16.15;83.33;101554.78;5029582;28;20190;-74
2022/05/21 09:00:01;;;;;;;11.00;7.87;;;;;;;16.01;83.38;101552.94;5030062;28;20221;-73
2022/05/21 09:02:31;;;;;;;10.83;7.20;;;;;;;15.90;83.87;101558.03;5038451;28;20212;-73
2022/05/21 09:04:58;;;;;;;10.00;5.97;;;;;;;15.73;83.75;101551.84;5034401;28;20614;-73
2022/05/21 09:07:29;;;;;;;8.03;6.77;;;;;;;15.45;85.66;101569.59;5031368;28;20257;-73
2022/05/21 09:09:57;;;;;;;9.43;6.57;;;;;;;15.16;85.96;101558.91;5030892;28;20625;-74
2022/05/21 09:12:33;;;;;;;13.40;7.13;;;;;;;15.18;87.84;101580.44;5031383;28;20640;-74
2022/05/21 09:15:02;;;;;;;14.30;7.20;;;;;;;15.04;89.94;101584.53;5030534;28;20209;-73
2022/05/21 09:17:28;;;;;;;9.97;6.43;;;;;;;14.78;89.23;101583.31;5014897;28;20186;-73
2022/05/21 09:20:02;;;;;;;12.17;6.80;;;;;;;14.88;89.82;101576.59;5050495;28;20178;-74
2022/05/21 09:22:27;;;;;;;6.87;4.43;;;;;;;14.97;89.04;101587.03;5050712;28;20209;-74
2022/05/21 09:24:54;;;;;;;9.27;5.33;;;;;;;15.22;89.06;101583.91;5043273;28;20221;-75
2022/05/21 09:27:25;;;;;;;9.27;4.40;;;;;;;15.41;87.77;101568.69;5030644;28;20206;-74
2022/05/21 09:29:53;;;;;;;6.17;3.80;;;;;;;15.80;88.11;101566.53;5027160;28;20912;-73
2022/05/21 09:32:20;;;;;;;6.23;3.13;;;;;;;16.53;84.65;101566.31;5027201;28;20612;-73
2022/05/21 09:34:59;;;;;;;5.83;2.80;;;;;;;16.82;83.83;101569.97;5050530;28;20258;-75
2022/05/21 09:37:28;;;;;;;3.30;2.10;;;;;;;17.19;81.34;101576.19;5050246;28;20274;-73
2022/05/21 09:39:53;;;;;;;5.70;2.07;;;;;;;17.17;80.18;101575.31;5050312;28;20647;-74
2022/05/21 09:45:22;;;;;;;6.40;2.60;;;;;;;17.31;81.33;101587.44;5039048;28;20353;-74
2022/05/21 09:47:49;;;;;;;7.03;2.43;;;;;;;17.35;80.55;101585.72;5010332;28;20191;-73
2022/05/21 09:50:21;;;;;;;7.97;2.60;;;;;;;17.49;80.01;101586.66;5010688;28;20564;-73
2022/05/21 09:52:47;;;;;;;5.20;2.20;;;;;;;17.85;78.84;101585.06;5009070;28;20253;-73
2022/05/21 09:55:28;;;;;;;4.73;2.07;;;;;;;18.51;75.61;101579.06;5009955;28;20234;-73
2022/05/21 09:57:54;;;;;;;6.33;2.00;;;;;;;18.75;73.22;101574.69;5010531;28;20191;-73
2022/05/21 10:00:29;;;;;;;5.77;1.83;;;;;;;18.46;73.33;101576.47;5014028;28;20269;-73
2022/05/21 10:02:56;;;;;;;6.73;2.10;;;;;;;17.69;74.14;101585.03;5018535;28;20190;-73
2022/05/21 10:05:36;;;;;;;4.97;1.70;;;;;;;18.46;72.54;101578.19;5009654;28;20286;-73
2022/05/21 10:10:59;;;;;;;3.47;1.27;;;;;;;18.52;69.10;101594.59;5009625;28;20203;-73
2022/05/21 10:13:29;;;;;;;3.07;1.50;;;;;;;19.14;68.90;101579.78;5010154;28;20303;-73
2022/05/21 10:16:12;;;;;;;3.13;1.10;;;;;;;18.79;68.26;101578.16;5009658;28;20604;-73
2022/05/21 10:18:52;;;;;;;6.47;1.50;;;;;;;18.38;68.12;101588.56;5016962;28;20174;-73
2022/05/21 10:21:30;;;;;;;5.07;1.43;;;;;;;17.90;68.47;101598.00;5029319;28;20190;-73
2022/05/21 10:24:05;;;;;;;7.00;2.00;;;;;;;18.54;67.80;101590.31;5029801;28;20205;-73
2022/05/21 10:26:48;;;;;;;3.70;1.40;;;;;;;18.58;67.59;101602.41;5029118;28;20276;-73
2022/05/21 10:29:53;;;;;;;5.23;1.80;;;;;;;18.90;65.41;101605.81;5028034;28;20191;-73
2022/05/21 10:32:29;;;;;;;5.47;1.60;;;;;;;18.58;64.29;101610.19;5029257;28;20194;-73
2022/05/21 10:35:45;;;;;;;4.97;1.40;;;;;;;19.57;63.50;101606.47;5029444;28;20202;-73
2022/05/21 10:38:44;;;;;;;3.67;1.37;;;;;;;19.77;62.58;101610.66;5027975;28;20269;-73
2022/05/21 10:41:30;;;;;;;3.07;1.20;;;;;;;20.01;61.74;101605.34;5029538;28;20200;-74
2022/05/21 10:44:29;;;;;;;4.73;1.23;;;;;;;19.89;60.71;101615.81;5027885;28;20206;-73
2022/05/21 10:47:10;;;;;;;6.73;1.77;;;;;;;18.84;61.42;101620.53;5029600;28;20567;-73
2022/05/21 10:50:10;;;;;;;5.00;1.40;;;;;;;18.92;63.62;101634.34;5024324;28;20195;-73
2022/05/21 10:53:14;;;;;;;5.37;1.53;;;;;;;20.11;59.39;101630.44;5037756;28;20198;-73
2022/05/21 10:55:48;;;;;;;6.33;1.47;;;;;;;19.10;61.19;101631.72;5027436;28;20332;-73
2022/05/21 10:58:34;;;;;;;4.43;1.40;;;;;;;19.05;60.87;101630.84;5029718;28;20173;-74
2022/05/21 11:01:15;;;;;;;4.50;1.57;;;;;;;19.41;60.58;101636.84;5027799;28;20339;-73
2022/05/21 11:04:03;;;;;;;5.63;1.70;;;;;;;20.54;58.60;101628.38;5029125;28;20228;-73
2022/05/21 11:07:01;;;;;;;4.60;1.27;;;;;;;20.37;55.65;101628.53;5025145;28;20752;-73
2022/05/21 11:09:35;;;;;;;3.97;1.27;;;;;;;19.67;57.07;101631.53;5038362;28;20243;-73
2022/05/21 11:12:17;;;;;;;6.10;1.50;;;;;;;20.06;56.05;101633.91;5047715;28;20189;-73
2022/05/21 11:14:50;;;;;;;5.90;1.50;;;;;;;19.22;55.78;101640.38;5049048;28;20244;-73
2022/05/21 11:17:35;;;;;;;3.80;1.40;;;;;;;19.83;55.71;101636.66;5042861;28;20233;-73
2022/05/21 11:20:06;;;;;;;5.20;1.30;;;;;;;20.24;55.49;101631.22;5028071;28;20186;-73
2022/05/21 11:22:44;;;;;;;5.53;1.63;;;;;;;19.82;56.11;101649.66;5028702;28;20197;-73
2022/05/21 11:25:16;;;;;;;5.03;1.37;;;;;;;19.85;54.82;101647.03;5027963;28;20210;-74
2022/05/21 11:28:20;;;;;;;4.90;1.67;;;;;;;19.48;56.01;101648.94;5027411;28;20195;-73
2022/05/21 11:30:45;;;;;;;5.83;1.67;;;;;;;20.35;55.27;101645.88;5028093;28;20281;-74
2022/05/21 11:38:53;;;;;;;5.13;1.60;;;;;;;20.14;54.03;101659.03;5009189;28;20187;-73
2022/05/21 11:41:42;;;;;;;7.20;1.50;;;;;;;20.42;55.07;101657.97;5020748;28;20217;-73
2022/05/21 11:47:12;;;;;;;4.90;1.77;;;;;;;20.38;51.81;101660.59;5032457;28;20210;-74
2022/05/21 11:49:59;;;;;;;6.13;1.80;;;;;;;20.90;51.31;101660.16;5032544;28;20242;-73
2022/05/21 11:52:28;;;;;;;5.77;1.70;;;;;;;20.54;51.80;101672.63;5032233;28;20188;-73
2022/05/21 11:54:53;;;;;;;3.77;1.43;;;;;;;20.66;51.32;101664.69;5032114;28;20214;-73
2022/05/21 11:57:33;;;;;;;6.33;1.97;;;;;;;21.21;50.80;101669.41;5032152;28;20181;-74
2022/05/21 12:00:04;;;;;;;3.70;1.10;;;;;;;21.47;49.87;101659.53;5032567;28;20225;-73